sensor_id;sensor_type;location;lat;lon;timestamp;pressure;altitude;pressure_sealevel;temperature;humidity
75146;BME280;63641;46.526;24.612;2023-07-22T00:00:38;96890.81;;;20.27;72.68
75146;BME280;63641;46.526;24.612;2023-07-22T00:03:05;96880.19;;;20.26;72.57
75146;BME280;63641;46.526;24.612;2023-07-22T00:05:32;96887.25;;;20.27;72.62
75146;BME280;63641;46.526;24.612;2023-07-22T00:08:00;96874.78;;;20.30;72.36
75146;BME280;63641;46.526;24.612;2023-07-22T00:10:26;96860.59;;;20.27;72.76
75146;BME280;63641;46.526;24.612;2023-07-22T00:12:53;96866.97;;;20.32;72.72
75146;BME280;63641;46.526;24.612;2023-07-22T00:15:20;96871.31;;;20.33;72.69
75146;BME280;63641;46.526;24.612;2023-07-22T00:17:49;96863.88;;;20.33;72.69
75146;BME280;63641;46.526;24.612;2023-07-22T00:20:16;96842.69;;;20.34;72.56
75146;BME280;63641;46.526;24.612;2023-07-22T00:22:43;96838.69;;;20.31;72.80
75146;BME280;63641;46.526;24.612;2023-07-22T00:25:10;96855.97;;;20.32;72.67
75146;BME280;63641;46.526;24.612;2023-07-22T00:27:39;96856.69;;;20.28;72.91
75146;BME280;63641;46.526;24.612;2023-07-22T00:30:06;96840.94;;;20.25;72.79
75146;BME280;63641;46.526;24.612;2023-07-22T00:32:33;96802.91;;;20.12;72.90
75146;BME280;63641;46.526;24.612;2023-07-22T00:35:00;96809.28;;;20.16;72.89
75146;BME280;63641;46.526;24.612;2023-07-22T00:37:26;96814.78;;;20.16;72.91
75146;BME280;63641;46.526;24.612;2023-07-22T00:39:53;96813.72;;;20.05;73.01
75146;BME280;63641;46.526;24.612;2023-07-22T00:42:21;96812.25;;;20.07;73.09
75146;BME280;63641;46.526;24.612;2023-07-22T00:44:48;96820.81;;;20.06;73.25
75146;BME280;63641;46.526;24.612;2023-07-22T00:47:15;96821.53;;;20.02;73.30
75146;BME280;63641;46.526;24.612;2023-07-22T00:49:42;96823.22;;;20.07;73.36
75146;BME280;63641;46.526;24.612;2023-07-22T00:52:09;96817.28;;;20.05;73.37
75146;BME280;63641;46.526;24.612;2023-07-22T00:54:36;96818.53;;;20.08;73.56
75146;BME280;63641;46.526;24.612;2023-07-22T00:57:03;96809.41;;;20.03;73.38
75146;BME280;63641;46.526;24.612;2023-07-22T00:59:30;96817.63;;;20.03;73.38
75146;BME280;63641;46.526;24.612;2023-07-22T01:01:58;96810.09;;;20.00;73.14
75146;BME280;63641;46.526;24.612;2023-07-22T01:04:25;96797.09;;;19.97;73.42
75146;BME280;63641;46.526;24.612;2023-07-22T01:06:52;96795.03;;;19.94;73.44
75146;BME280;63641;46.526;24.612;2023-07-22T01:09:19;96806.81;;;19.95;73.43
75146;BME280;63641;46.526;24.612;2023-07-22T01:11:46;96799.38;;;19.95;73.42
75146;BME280;63641;46.526;24.612;2023-07-22T01:14:13;96800.53;;;19.94;73.50
75146;BME280;63641;46.526;24.612;2023-07-22T01:16:39;96815.16;;;19.98;73.63
75146;BME280;63641;46.526;24.612;2023-07-22T01:19:06;96812.41;;;19.98;73.72
75146;BME280;63641;46.526;24.612;2023-07-22T01:21:35;96819.06;;;19.97;73.67
75146;BME280;63641;46.526;24.612;2023-07-22T01:24:03;96821.63;;;19.90;73.91
75146;BME280;63641;46.526;24.612;2023-07-22T01:26:29;96814.44;;;19.86;73.70
75146;BME280;63641;46.526;24.612;2023-07-22T01:29:03;96805.75;;;19.84;74.09
75146;BME280;63641;46.526;24.612;2023-07-22T01:31:30;96804.53;;;19.81;74.06
75146;BME280;63641;46.526;24.612;2023-07-22T01:33:57;96795.06;;;19.78;73.96
75146;BME280;63641;46.526;24.612;2023-07-22T01:36:25;96800.53;;;19.78;73.97
75146;BME280;63641;46.526;24.612;2023-07-22T01:38:52;96798.59;;;19.79;73.83
75146;BME280;63641;46.526;24.612;2023-07-22T01:41:19;96798.41;;;19.72;73.75
75146;BME280;63641;46.526;24.612;2023-07-22T01:43:45;96798.78;;;19.70;73.73
75146;BME280;63641;46.526;24.612;2023-07-22T01:46:12;96797.06;;;19.66;73.73
75146;BME280;63641;46.526;24.612;2023-07-22T01:48:39;96785.25;;;19.49;73.69
75146;BME280;63641;46.526;24.612;2023-07-22T01:51:06;96801.44;;;19.54;73.81
75146;BME280;63641;46.526;24.612;2023-07-22T01:53:32;96798.28;;;19.52;73.55
75146;BME280;63641;46.526;24.612;2023-07-22T01:55:59;96795.16;;;19.54;73.44
75146;BME280;63641;46.526;24.612;2023-07-22T01:58:26;96794.19;;;19.46;73.59
75146;BME280;63641;46.526;24.612;2023-07-22T02:00:52;96791.16;;;19.36;73.50
75146;BME280;63641;46.526;24.612;2023-07-22T02:03:19;96806.41;;;19.33;73.48
75146;BME280;63641;46.526;24.612;2023-07-22T02:05:47;96808.59;;;19.27;73.60
75146;BME280;63641;46.526;24.612;2023-07-22T02:08:13;96802.53;;;19.22;73.74
75146;BME280;63641;46.526;24.612;2023-07-22T02:10:40;96811.13;;;19.20;73.46
75146;BME280;63641;46.526;24.612;2023-07-22T02:13:06;96803.97;;;19.16;73.35
75146;BME280;63641;46.526;24.612;2023-07-22T02:15:33;96810.94;;;19.13;73.10
75146;BME280;63641;46.526;24.612;2023-07-22T02:18:01;96822.69;;;19.14;73.18
75146;BME280;63641;46.526;24.612;2023-07-22T02:20:28;96821.25;;;19.04;73.19
75146;BME280;63641;46.526;24.612;2023-07-22T02:22:55;96833.47;;;19.06;73.23
75146;BME280;63641;46.526;24.612;2023-07-22T02:25:22;96840.47;;;19.04;73.02
75146;BME280;63641;46.526;24.612;2023-07-22T02:27:49;96838.84;;;19.03;73.05
75146;BME280;63641;46.526;24.612;2023-07-22T02:30:17;96843.00;;;18.97;73.22
75146;BME280;63641;46.526;24.612;2023-07-22T02:32:44;96839.78;;;18.95;73.22
75146;BME280;63641;46.526;24.612;2023-07-22T02:35:11;96830.41;;;18.96;73.51
75146;BME280;63641;46.526;24.612;2023-07-22T02:37:38;96842.53;;;18.95;73.49
75146;BME280;63641;46.526;24.612;2023-07-22T02:40:06;96851.13;;;18.93;73.71
75146;BME280;63641;46.526;24.612;2023-07-22T02:42:38;96851.00;;;18.90;73.71
75146;BME280;63641;46.526;24.612;2023-07-22T02:45:05;96821.22;;;18.76;74.09
75146;BME280;63641;46.526;24.612;2023-07-22T02:47:34;96832.41;;;18.83;73.94
75146;BME280;63641;46.526;24.612;2023-07-22T02:50:02;96830.34;;;18.80;73.93
75146;BME280;63641;46.526;24.612;2023-07-22T02:52:30;96859.56;;;18.88;74.05
75146;BME280;63641;46.526;24.612;2023-07-22T02:55:10;96853.28;;;18.88;74.15
75146;BME280;63641;46.526;24.612;2023-07-22T02:57:40;96860.72;;;18.87;74.13
75146;BME280;63641;46.526;24.612;2023-07-22T03:00:08;96843.72;;;18.81;74.02
75146;BME280;63641;46.526;24.612;2023-07-22T03:02:35;96848.84;;;18.83;73.97
75146;BME280;63641;46.526;24.612;2023-07-22T03:05:04;96844.41;;;18.78;74.08
75146;BME280;63641;46.526;24.612;2023-07-22T03:07:34;96845.88;;;18.76;73.99
75146;BME280;63641;46.526;24.612;2023-07-22T03:10:02;96839.16;;;18.73;73.90
75146;BME280;63641;46.526;24.612;2023-07-22T03:12:28;96830.78;;;18.70;74.17
75146;BME280;63641;46.526;24.612;2023-07-22T03:14:55;96843.25;;;18.67;74.10
75146;BME280;63641;46.526;24.612;2023-07-22T03:17:22;96865.19;;;18.67;74.19
75146;BME280;63641;46.526;24.612;2023-07-22T03:19:49;96872.16;;;18.65;74.29
75146;BME280;63641;46.526;24.612;2023-07-22T03:22:16;96867.03;;;18.63;74.34
75146;BME280;63641;46.526;24.612;2023-07-22T03:24:44;96860.72;;;18.63;74.47
75146;BME280;63641;46.526;24.612;2023-07-22T03:27:13;96860.72;;;18.63;74.53
75146;BME280;63641;46.526;24.612;2023-07-22T03:29:41;96854.34;;;18.58;74.48
75146;BME280;63641;46.526;24.612;2023-07-22T03:32:08;96857.06;;;18.58;74.65
75146;BME280;63641;46.526;24.612;2023-07-22T03:34:35;96865.28;;;18.58;74.75
75146;BME280;63641;46.526;24.612;2023-07-22T03:37:02;96862.81;;;18.53;74.85
75146;BME280;63641;46.526;24.612;2023-07-22T03:39:28;96866.34;;;18.54;74.92
75146;BME280;63641;46.526;24.612;2023-07-22T03:41:55;96867.81;;;18.51;75.12
75146;BME280;63641;46.526;24.612;2023-07-22T03:44:22;96873.66;;;18.50;75.22
75146;BME280;63641;46.526;24.612;2023-07-22T03:46:48;96869.88;;;18.54;75.30
75146;BME280;63641;46.526;24.612;2023-07-22T03:49:15;96868.97;;;18.50;75.40
75146;BME280;63641;46.526;24.612;2023-07-22T03:51:42;96862.34;;;18.51;75.40
75146;BME280;63641;46.526;24.612;2023-07-22T03:54:08;96863.38;;;18.47;75.38
75146;BME280;63641;46.526;24.612;2023-07-22T03:56:36;96886.41;;;18.58;75.59
75146;BME280;63641;46.526;24.612;2023-07-22T03:59:03;96876.94;;;18.55;75.50
75146;BME280;63641;46.526;24.612;2023-07-22T04:01:29;96880.16;;;18.57;75.71
75146;BME280;63641;46.526;24.612;2023-07-22T04:03:56;96880.81;;;18.54;75.78
75146;BME280;63641;46.526;24.612;2023-07-22T04:06:23;96884.16;;;18.60;75.88
75146;BME280;63641;46.526;24.612;2023-07-22T04:08:51;96877.03;;;18.59;75.73
75146;BME280;63641;46.526;24.612;2023-07-22T04:11:18;96886.09;;;18.59;75.94
75146;BME280;63641;46.526;24.612;2023-07-22T04:13:45;96883.34;;;18.59;76.09
75146;BME280;63641;46.526;24.612;2023-07-22T04:16:11;96892.69;;;18.58;76.19
75146;BME280;63641;46.526;24.612;2023-07-22T04:18:38;96897.16;;;18.63;76.21
75146;BME280;63641;46.526;24.612;2023-07-22T04:21:05;96895.34;;;18.67;76.29
75146;BME280;63641;46.526;24.612;2023-07-22T04:23:31;96902.84;;;18.70;76.43
75146;BME280;63641;46.526;24.612;2023-07-22T04:26:02;96899.91;;;18.75;76.43
75146;BME280;63641;46.526;24.612;2023-07-22T04:28:31;96895.69;;;18.78;76.34
75146;BME280;63641;46.526;24.612;2023-07-22T04:30:59;96891.00;;;18.78;76.47
75146;BME280;63641;46.526;24.612;2023-07-22T04:33:27;96896.59;;;18.82;76.49
75146;BME280;63641;46.526;24.612;2023-07-22T04:35:57;96894.41;;;18.88;76.33
75146;BME280;63641;46.526;24.612;2023-07-22T04:38:24;96907.31;;;18.87;76.58
75146;BME280;63641;46.526;24.612;2023-07-22T04:40:51;96916.91;;;18.93;76.98
75146;BME280;63641;46.526;24.612;2023-07-22T04:43:17;96913.38;;;18.93;76.72
75146;BME280;63641;46.526;24.612;2023-07-22T04:45:48;96913.47;;;18.96;76.68
75146;BME280;63641;46.526;24.612;2023-07-22T04:48:15;96897.59;;;18.90;76.73
75146;BME280;63641;46.526;24.612;2023-07-22T04:50:42;96897.03;;;18.96;77.06
75146;BME280;63641;46.526;24.612;2023-07-22T04:53:12;96904.09;;;18.97;77.17
75146;BME280;63641;46.526;24.612;2023-07-22T04:55:42;96902.25;;;19.01;77.00
75146;BME280;63641;46.526;24.612;2023-07-22T04:58:09;96898.72;;;19.01;77.09
75146;BME280;63641;46.526;24.612;2023-07-22T05:00:37;96908.28;;;19.07;77.18
75146;BME280;63641;46.526;24.612;2023-07-22T05:03:04;96909.91;;;19.08;77.35
75146;BME280;63641;46.526;24.612;2023-07-22T05:05:32;96913.97;;;19.14;77.36
75146;BME280;63641;46.526;24.612;2023-07-22T05:07:59;96917.31;;;19.20;77.23
75146;BME280;63641;46.526;24.612;2023-07-22T05:10:25;96936.34;;;19.28;77.11
75146;BME280;63641;46.526;24.612;2023-07-22T05:12:54;96932.91;;;19.31;76.97
75146;BME280;63641;46.526;24.612;2023-07-22T05:15:23;96936.66;;;19.39;76.90
75146;BME280;63641;46.526;24.612;2023-07-22T05:17:50;96945.09;;;19.46;76.89
75146;BME280;63641;46.526;24.612;2023-07-22T05:20:17;96945.31;;;19.53;76.80
75146;BME280;63641;46.526;24.612;2023-07-22T05:22:44;96938.56;;;19.63;76.70
75146;BME280;63641;46.526;24.612;2023-07-22T05:25:10;96938.41;;;19.72;76.50
75146;BME280;63641;46.526;24.612;2023-07-22T05:27:37;96961.66;;;19.90;76.13
75146;BME280;63641;46.526;24.612;2023-07-22T05:30:05;96956.34;;;19.97;76.07
75146;BME280;63641;46.526;24.612;2023-07-22T05:32:41;96964.88;;;20.08;75.83
75146;BME280;63641;46.526;24.612;2023-07-22T05:35:08;96961.34;;;20.08;75.53
75146;BME280;63641;46.526;24.612;2023-07-22T05:37:35;96966.13;;;20.11;75.49
75146;BME280;63641;46.526;24.612;2023-07-22T05:40:02;96954.41;;;20.14;75.62
75146;BME280;63641;46.526;24.612;2023-07-22T05:42:29;96950.19;;;20.16;75.55
75146;BME280;63641;46.526;24.612;2023-07-22T05:44:57;96942.81;;;20.20;75.46
75146;BME280;63641;46.526;24.612;2023-07-22T05:47:25;96936.19;;;20.21;75.45
75146;BME280;63641;46.526;24.612;2023-07-22T05:49:52;96928.19;;;20.16;75.55
75146;BME280;63641;46.526;24.612;2023-07-22T05:52:18;96943.09;;;20.31;75.33
75146;BME280;63641;46.526;24.612;2023-07-22T05:54:45;96930.53;;;20.30;75.18
75146;BME280;63641;46.526;24.612;2023-07-22T05:57:12;96925.13;;;20.34;74.92
75146;BME280;63641;46.526;24.612;2023-07-22T05:59:39;96918.19;;;20.40;74.94
75146;BME280;63641;46.526;24.612;2023-07-22T06:02:08;96931.75;;;20.48;74.86
75146;BME280;63641;46.526;24.612;2023-07-22T06:04:35;96930.63;;;20.49;74.92
75146;BME280;63641;46.526;24.612;2023-07-22T06:07:02;96945.59;;;20.68;74.99
75146;BME280;63641;46.526;24.612;2023-07-22T06:09:28;96945.78;;;20.75;74.34
75146;BME280;63641;46.526;24.612;2023-07-22T06:11:56;96953.03;;;20.83;74.39
75146;BME280;63641;46.526;24.612;2023-07-22T06:14:22;96951.69;;;20.93;73.85
75146;BME280;63641;46.526;24.612;2023-07-22T06:16:49;96959.81;;;21.05;73.54
75146;BME280;63641;46.526;24.612;2023-07-22T06:19:16;96953.84;;;21.19;73.27
75146;BME280;63641;46.526;24.612;2023-07-22T06:21:43;96955.44;;;21.20;72.92
75146;BME280;63641;46.526;24.612;2023-07-22T06:24:10;96952.19;;;21.14;72.47
75146;BME280;63641;46.526;24.612;2023-07-22T06:26:37;96941.34;;;21.21;72.40
75146;BME280;63641;46.526;24.612;2023-07-22T06:29:04;96937.56;;;21.30;72.30
75146;BME280;63641;46.526;24.612;2023-07-22T06:31:31;96947.81;;;21.49;71.94
75146;BME280;63641;46.526;24.612;2023-07-22T06:33:58;96955.66;;;21.66;71.73
75146;BME280;63641;46.526;24.612;2023-07-22T06:36:28;96949.28;;;21.81;71.29
75146;BME280;63641;46.526;24.612;2023-07-22T06:38:55;96952.59;;;21.90;70.47
75146;BME280;63641;46.526;24.612;2023-07-22T06:41:23;96967.00;;;22.03;70.10
75146;BME280;63641;46.526;24.612;2023-07-22T06:43:51;96958.88;;;22.10;69.86
75146;BME280;63641;46.526;24.612;2023-07-22T06:46:17;96956.75;;;22.23;69.24
75146;BME280;63641;46.526;24.612;2023-07-22T06:48:45;96963.09;;;22.47;68.66
75146;BME280;63641;46.526;24.612;2023-07-22T06:51:11;96964.13;;;22.61;68.14
75146;BME280;63641;46.526;24.612;2023-07-22T06:53:38;96967.44;;;22.71;67.79
75146;BME280;63641;46.526;24.612;2023-07-22T06:56:05;96967.28;;;22.86;67.79
75146;BME280;63641;46.526;24.612;2023-07-22T06:58:32;96949.72;;;22.95;67.04
75146;BME280;63641;46.526;24.612;2023-07-22T07:00:59;96965.41;;;23.17;67.05
75146;BME280;63641;46.526;24.612;2023-07-22T07:03:26;96975.91;;;23.34;66.70
75146;BME280;63641;46.526;24.612;2023-07-22T07:05:55;96973.22;;;23.68;66.02
75146;BME280;63641;46.526;24.612;2023-07-22T07:08:23;96977.53;;;23.99;64.69
75146;BME280;63641;46.526;24.612;2023-07-22T07:10:50;96974.63;;;24.22;63.35
75146;BME280;63641;46.526;24.612;2023-07-22T07:13:18;96984.59;;;24.30;63.04
75146;BME280;63641;46.526;24.612;2023-07-22T07:15:47;96981.09;;;24.37;62.14
75146;BME280;63641;46.526;24.612;2023-07-22T07:18:17;96979.91;;;24.34;61.86
75146;BME280;63641;46.526;24.612;2023-07-22T07:20:44;96992.31;;;24.51;61.78
75146;BME280;63641;46.526;24.612;2023-07-22T07:23:13;96988.81;;;24.58;61.21
75146;BME280;63641;46.526;24.612;2023-07-22T07:25:40;96998.84;;;24.73;60.55
75146;BME280;63641;46.526;24.612;2023-07-22T07:28:06;96986.16;;;24.69;59.44
75146;BME280;63641;46.526;24.612;2023-07-22T07:30:33;97003.59;;;24.73;59.32
75146;BME280;63641;46.526;24.612;2023-07-22T07:33:00;96998.00;;;24.69;59.85
75146;BME280;63641;46.526;24.612;2023-07-22T07:35:27;97007.22;;;24.80;59.62
75146;BME280;63641;46.526;24.612;2023-07-22T07:37:53;97011.53;;;24.78;59.46
75146;BME280;63641;46.526;24.612;2023-07-22T07:40:20;97005.78;;;24.53;59.61
75146;BME280;63641;46.526;24.612;2023-07-22T07:42:47;97016.81;;;24.49;60.01
75146;BME280;63641;46.526;24.612;2023-07-22T07:45:14;97012.22;;;24.27;60.00
75146;BME280;63641;46.526;24.612;2023-07-22T07:47:41;97022.97;;;24.02;60.19
75146;BME280;63641;46.526;24.612;2023-07-22T07:50:08;97031.44;;;23.82;60.36
75146;BME280;63641;46.526;24.612;2023-07-22T07:52:35;97023.78;;;23.72;61.08
75146;BME280;63641;46.526;24.612;2023-07-22T07:55:02;97031.75;;;23.77;60.97
75146;BME280;63641;46.526;24.612;2023-07-22T07:57:28;97038.09;;;23.81;61.09
75146;BME280;63641;46.526;24.612;2023-07-22T07:59:55;97032.91;;;23.76;61.12
75146;BME280;63641;46.526;24.612;2023-07-22T08:02:22;97029.81;;;23.81;61.01
75146;BME280;63641;46.526;24.612;2023-07-22T08:04:49;97023.28;;;23.97;61.13
75146;BME280;63641;46.526;24.612;2023-07-22T08:07:16;97033.03;;;24.17;60.82
75146;BME280;63641;46.526;24.612;2023-07-22T08:09:43;97030.25;;;24.17;60.52
75146;BME280;63641;46.526;24.612;2023-07-22T08:12:10;97033.03;;;24.17;60.98
75146;BME280;63641;46.526;24.612;2023-07-22T08:14:37;97038.59;;;24.21;60.75
75146;BME280;63641;46.526;24.612;2023-07-22T08:17:03;97037.84;;;24.24;61.02
75146;BME280;63641;46.526;24.612;2023-07-22T08:19:30;97038.72;;;24.31;60.62
75146;BME280;63641;46.526;24.612;2023-07-22T08:21:57;97043.06;;;24.32;60.17
75146;BME280;63641;46.526;24.612;2023-07-22T08:24:23;97033.38;;;24.46;59.61
75146;BME280;63641;46.526;24.612;2023-07-22T08:26:50;97027.34;;;24.77;59.70
75146;BME280;63641;46.526;24.612;2023-07-22T08:29:17;97041.03;;;25.04;59.09
75146;BME280;63641;46.526;24.612;2023-07-22T08:31:43;97034.78;;;25.14;58.15
75146;BME280;63641;46.526;24.612;2023-07-22T08:34:10;97029.25;;;25.14;57.38
75146;BME280;63641;46.526;24.612;2023-07-22T08:36:37;97025.34;;;25.19;57.01
75146;BME280;63641;46.526;24.612;2023-07-22T08:39:03;97027.81;;;25.35;57.28
75146;BME280;63641;46.526;24.612;2023-07-22T08:41:31;97016.78;;;25.42;56.96
75146;BME280;63641;46.526;24.612;2023-07-22T08:43:59;97025.91;;;25.46;56.47
75146;BME280;63641;46.526;24.612;2023-07-22T08:46:32;97029.88;;;25.45;56.43
75146;BME280;63641;46.526;24.612;2023-07-22T08:49:00;97028.69;;;25.46;56.35
75146;BME280;63641;46.526;24.612;2023-07-22T08:51:27;97034.88;;;25.28;55.98
75146;BME280;63641;46.526;24.612;2023-07-22T08:53:58;97044.66;;;25.12;56.46
75146;BME280;63641;46.526;24.612;2023-07-22T08:56:38;97044.56;;;25.01;57.41
75146;BME280;63641;46.526;24.612;2023-07-22T08:59:05;97047.72;;;25.03;57.54
75146;BME280;63641;46.526;24.612;2023-07-22T09:01:33;97053.19;;;24.96;57.77
75146;BME280;63641;46.526;24.612;2023-07-22T09:04:01;97055.44;;;24.79;58.01
75146;BME280;63641;46.526;24.612;2023-07-22T09:06:29;97055.44;;;24.79;58.21
75146;BME280;63641;46.526;24.612;2023-07-22T09:08:56;97057.41;;;24.79;58.66
75146;BME280;63641;46.526;24.612;2023-07-22T09:11:24;97051.41;;;24.73;58.64
75146;BME280;63641;46.526;24.612;2023-07-22T09:13:52;97047.06;;;24.72;58.46
75146;BME280;63641;46.526;24.612;2023-07-22T09:16:19;97056.63;;;24.78;58.31
75146;BME280;63641;46.526;24.612;2023-07-22T09:18:47;97060.59;;;24.85;58.14
75146;BME280;63641;46.526;24.612;2023-07-22T09:21:13;97060.66;;;24.92;58.09
75146;BME280;63641;46.526;24.612;2023-07-22T09:23:40;97049.53;;;24.85;57.99
75146;BME280;63641;46.526;24.612;2023-07-22T09:26:15;97056.34;;;24.94;58.00
75146;BME280;63641;46.526;24.612;2023-07-22T09:28:55;97051.31;;;25.07;57.96
75146;BME280;63641;46.526;24.612;2023-07-22T09:31:24;97049.47;;;25.22;58.01
75146;BME280;63641;46.526;24.612;2023-07-22T09:33:52;97055.56;;;25.42;57.53
75146;BME280;63641;46.526;24.612;2023-07-22T09:36:21;97049.34;;;25.56;56.75
75146;BME280;63641;46.526;24.612;2023-07-22T09:38:59;97056.09;;;25.65;56.34
75146;BME280;63641;46.526;24.612;2023-07-22T09:41:30;97056.50;;;25.64;56.69
75146;BME280;63641;46.526;24.612;2023-07-22T09:43:57;97057.28;;;25.64;56.43
75146;BME280;63641;46.526;24.612;2023-07-22T09:46:31;97057.25;;;25.57;56.35
75146;BME280;63641;46.526;24.612;2023-07-22T09:49:02;97068.34;;;25.61;56.33
75146;BME280;63641;46.526;24.612;2023-07-22T09:51:36;97076.28;;;25.66;56.56
75146;BME280;63641;46.526;24.612;2023-07-22T09:54:26;97067.94;;;25.59;57.02
75146;BME280;63641;46.526;24.612;2023-07-22T09:56:55;97077.81;;;25.56;57.25
75146;BME280;63641;46.526;24.612;2023-07-22T09:59:23;97073.78;;;25.46;57.75
75146;BME280;63641;46.526;24.612;2023-07-22T10:01:51;97073.78;;;25.46;58.07
75146;BME280;63641;46.526;24.612;2023-07-22T10:04:21;97072.94;;;25.35;58.21
75146;BME280;63641;46.526;24.612;2023-07-22T10:06:50;97081.22;;;25.32;58.25
75146;BME280;63641;46.526;24.612;2023-07-22T10:09:18;97078.84;;;25.34;58.29
75146;BME280;63641;46.526;24.612;2023-07-22T10:11:46;97080.00;;;25.33;58.00
75146;BME280;63641;46.526;24.612;2023-07-22T10:14:14;97064.97;;;25.26;58.20
75146;BME280;63641;46.526;24.612;2023-07-22T10:16:41;97082.56;;;25.52;58.19
75146;BME280;63641;46.526;24.612;2023-07-22T10:19:09;97087.41;;;25.69;57.97
75146;BME280;63641;46.526;24.612;2023-07-22T10:21:37;97089.06;;;25.81;57.66
75146;BME280;63641;46.526;24.612;2023-07-22T10:24:05;97090.31;;;25.87;57.53
75146;BME280;63641;46.526;24.612;2023-07-22T10:26:33;97103.78;;;25.89;57.19
75146;BME280;63641;46.526;24.612;2023-07-22T10:29:13;97094.28;;;25.86;57.04
75146;BME280;63641;46.526;24.612;2023-07-22T10:31:41;97098.69;;;25.98;57.03
75146;BME280;63641;46.526;24.612;2023-07-22T10:34:08;97094.00;;;26.13;56.48
75146;BME280;63641;46.526;24.612;2023-07-22T10:36:35;97086.56;;;26.35;55.71
75146;BME280;63641;46.526;24.612;2023-07-22T10:39:03;97092.59;;;26.55;55.04
75146;BME280;63641;46.526;24.612;2023-07-22T10:41:32;97086.31;;;26.72;55.16
75146;BME280;63641;46.526;24.612;2023-07-22T10:43:59;97088.72;;;26.95;54.71
75146;BME280;63641;46.526;24.612;2023-07-22T10:46:32;97083.22;;;27.13;54.04
75146;BME280;63641;46.526;24.612;2023-07-22T10:49:13;97080.84;;;27.40;53.68
75146;BME280;63641;46.526;24.612;2023-07-22T10:51:40;97079.63;;;27.59;52.76
75146;BME280;63641;46.526;24.612;2023-07-22T10:54:12;97095.47;;;27.80;52.44
75146;BME280;63641;46.526;24.612;2023-07-22T10:56:45;97080.41;;;27.77;51.09
75146;BME280;63641;46.526;24.612;2023-07-22T10:59:12;97117.31;;;27.70;51.08
75146;BME280;63641;46.526;24.612;2023-07-22T11:01:41;97102.22;;;27.61;51.06
75146;BME280;63641;46.526;24.612;2023-07-22T11:14:49;97105.84;;;27.29;50.48
75146;BME280;63641;46.526;24.612;2023-07-22T11:17:18;97106.22;;;27.38;50.64
75146;BME280;63641;46.526;24.612;2023-07-22T11:19:55;97107.78;;;27.57;50.20
75146;BME280;63641;46.526;24.612;2023-07-22T11:22:21;97109.00;;;27.67;49.73
75146;BME280;63641;46.526;24.612;2023-07-22T11:24:49;97113.34;;;27.64;49.28
75146;BME280;63641;46.526;24.612;2023-07-22T11:27:16;97103.84;;;27.62;49.04
75146;BME280;63641;46.526;24.612;2023-07-22T11:29:43;97101.44;;;27.71;49.30
75146;BME280;63641;46.526;24.612;2023-07-22T11:32:16;97087.13;;;27.73;48.30
75146;BME280;63641;46.526;24.612;2023-07-22T11:34:43;97099.88;;;27.84;48.26
75146;BME280;63641;46.526;24.612;2023-07-22T11:37:14;97093.06;;;28.03;48.04
75146;BME280;63641;46.526;24.612;2023-07-22T11:39:41;97102.94;;;28.18;48.09
75146;BME280;63641;46.526;24.612;2023-07-22T11:42:09;97088.22;;;28.22;47.56
75146;BME280;63641;46.526;24.612;2023-07-22T11:44:36;97091.81;;;28.11;46.90
75146;BME280;63641;46.526;24.612;2023-07-22T11:47:05;97092.69;;;27.83;46.50
75146;BME280;63641;46.526;24.612;2023-07-22T11:49:38;97093.91;;;27.57;46.78
75146;BME280;63641;46.526;24.612;2023-07-22T11:52:07;97094.31;;;27.52;46.67
75146;BME280;63641;46.526;24.612;2023-07-22T11:54:36;97084.75;;;27.64;46.46
75146;BME280;63641;46.526;24.612;2023-07-22T11:57:29;97078.81;;;27.80;46.78
75146;BME280;63641;46.526;24.612;2023-07-22T11:59:56;97092.69;;;27.87;46.21
75146;BME280;63641;46.526;24.612;2023-07-22T12:02:25;97088.31;;;27.93;45.62
75146;BME280;63641;46.526;24.612;2023-07-22T12:07:27;97086.66;;;28.13;45.68
75146;BME280;63641;46.526;24.612;2023-07-22T12:09:56;97087.81;;;28.20;45.50
75146;BME280;63641;46.526;24.612;2023-07-22T12:15:09;97080.31;;;28.09;45.78
75146;BME280;63641;46.526;24.612;2023-07-22T12:18:01;97094.19;;;28.16;45.99
75146;BME280;63641;46.526;24.612;2023-07-22T12:20:30;97079.88;;;28.25;46.19
75146;BME280;63641;46.526;24.612;2023-07-22T12:22:58;97085.78;;;28.31;45.67
75146;BME280;63641;46.526;24.612;2023-07-22T12:25:25;97087.75;;;28.34;46.56
75146;BME280;63641;46.526;24.612;2023-07-22T12:27:52;97087.75;;;28.34;46.12
75146;BME280;63641;46.526;24.612;2023-07-22T12:30:19;97079.03;;;28.39;46.23
75146;BME280;63641;46.526;24.612;2023-07-22T12:32:47;97074.59;;;28.52;45.54
75146;BME280;63641;46.526;24.612;2023-07-22T12:35:14;97078.53;;;28.58;44.93
75146;BME280;63641;46.526;24.612;2023-07-22T12:37:41;97080.13;;;28.56;45.04
75146;BME280;63641;46.526;24.612;2023-07-22T12:40:08;97072.56;;;28.56;45.42
75146;BME280;63641;46.526;24.612;2023-07-22T12:42:36;97091.22;;;28.67;44.92
75146;BME280;63641;46.526;24.612;2023-07-22T12:45:04;97090.81;;;28.64;44.93
75146;BME280;63641;46.526;24.612;2023-07-22T12:47:31;97095.25;;;28.55;44.48
75146;BME280;63641;46.526;24.612;2023-07-22T12:49:58;97094.47;;;28.51;44.55
75146;BME280;63641;46.526;24.612;2023-07-22T12:52:25;97092.84;;;28.57;44.42
75146;BME280;63641;46.526;24.612;2023-07-22T12:54:52;97093.56;;;28.68;43.74
75146;BME280;63641;46.526;24.612;2023-07-22T12:57:19;97093.59;;;28.64;43.78
75146;BME280;63641;46.526;24.612;2023-07-22T12:59:46;97093.66;;;28.57;44.07
75146;BME280;63641;46.526;24.612;2023-07-22T13:02:16;97088.88;;;28.58;44.83
75146;BME280;63641;46.526;24.612;2023-07-22T13:04:43;97087.66;;;28.62;44.46
75146;BME280;63641;46.526;24.612;2023-07-22T13:07:11;97086.09;;;28.61;45.22
75146;BME280;63641;46.526;24.612;2023-07-22T13:09:43;97078.09;;;28.63;44.58